| Date | Time | Temp. (oF) | Dew Point (oF) | Rel. Hum. (%) | Press. (in.) | Wind Dir. | Wind Speed (mph) | Hourly Rainfall (in.) |
|
|---|---|---|---|---|---|---|---|---|---|
| 1 | 02/27 | 00:00 | 40 | 35 | 83 | 29.69 | NNW | 3 | 0.00 |
| 2 | 02/26 | 23:00 | 39 | 37 | 93 | 29.71 | NW | 4 | 0.02 |
| 3 | 02/26 | 22:00 | 40 | 37 | 92 | 29.74 | NW | 6 | 0.05 |
| 4 | 02/26 | 21:00 | 44 | 39 | 83 | 29.69 | WNW | 10 | 0.02 |
| 5 | 02/26 | 20:00 | 48 | 44 | 87 | 29.67 | NW | 15 | 0.03 |
| 6 | 02/26 | 19:00 | 55 | 46 | 72 | 29.62 | WNW | 21 | 0.00 |
| 7 | 02/26 | 18:00 | 60 | 41 | 51 | 29.55 | SSE | 7 | 0.00 |
| 8 | 02/26 | 17:00 | 62 | 40 | 46 | 29.57 | SSE | 5 | 0.00 |
| 9 | 02/26 | 16:00 | 62 | 39 | 44 | 29.59 | ESE | 5 | 0.00 |
| 10 | 02/26 | 15:00 | 62 | 39 | 43 | 29.62 | SSE | 17 | 0.00 |
| 11 | 02/26 | 14:00 | 59 | 37 | 45 | 29.65 | SSE | 5 | 0.00 |
| 12 | 02/26 | 13:00 | 59 | 35 | 42 | 29.71 | SSW | 11 | 0.00 |
| 13 | 02/26 | 12:00 | 59 | 35 | 42 | 29.73 | SSW | 11 | 0.00 |
| 14 | 02/26 | 11:00 | 55 | 37 | 51 | 29.75 | SSE | 12 | 0.00 |
| 15 | 02/26 | 10:00 | 50 | 37 | 61 | 29.76 | S | 10 | 0.00 |
| 16 | 02/26 | 09:00 | 46 | 39 | 79 | 29.80 | SE | 2 | 0.00 |
| 17 | 02/26 | 08:00 | 36 | 36 | 100 | 29.83 | NE | 1 | 0.00 |
| 18 | 02/26 | 07:00 | 33 | 32 | 99 | 29.84 | ENE | 2 | 0.00 |
| 19 | 02/26 | 06:00 | 34 | 33 | 97 | 29.86 | S | 0 | 0.00 |
| 20 | 02/26 | 05:00 | 35 | 33 | 93 | 29.88 | N | 1 | 0.00 |
| 21 | 02/26 | 04:00 | 37 | 34 | 89 | 29.89 | ESE | 1 | 0.00 |
| 22 | 02/26 | 03:00 | 40 | 35 | 84 | 29.92 | NE | 1 | 0.00 |
| 23 | 02/26 | 02:00 | 42 | 36 | 81 | 29.94 | SSE | 2 | 0.00 |
| 24 | 02/26 | 01:00 | 43 | 35 | 76 | 29.97 | N | 1 | 0.00 |